Data for 01/21/2009

Time Sea-Level Adjusted Pressure Absolute Pressure Temperature Relative Humidity Dew Point   
(mb) (inHg) (mb) (inHg) (C) (F) (%) (C) (F)
00:05 1023 30.21 852 25.16 -1.7 29 40 -13.4 7.8
00:10 1023 30.21 852 25.16 -1.7 29 40 -13.6 7.5
00:15 1023 30.21 852 25.16 -1.7 29 41 -13.4 7.9
00:20 1023 30.21 852 25.16 -1.8 28.8 41 -13.2 8.2
00:25 1023 30.21 852 25.16 -1.5 29.3 40 -13.4 7.9
00:30 1023 30.21 852 25.16 -1.1 30 40 -13.1 8.5
00:35 1023 30.21 852 25.16 -1.4 29.6 41 -13 8.6
00:40 1023 30.21 852 25.16 -1.3 29.7 40 -13.1 8.4
00:45 1023 30.21 852 25.16 -1.2 29.9 40 -13.2 8.2
00:50 1023 30.21 852 25.16 -1 30.3 39 -13.3 8
00:55 1023 30.21 852 25.16 -0.7 30.8 39 -13.2 8.3
01:00 1023 30.21 852 25.16 -0.9 30.4 39 -13.1 8.4
01:05 1023 30.21 852 25.16 -1 30.1 39 -13.3 8.1
01:10 1023 30.21 852 25.16 -1.2 29.8 39 -13.4 7.9
01:15 1022 30.18 852 25.16 -1.2 29.8 40 -13.3 8.1
01:20 1022 30.18 852 25.16 -1.3 29.6 39 -13.5 7.8
01:25 1022 30.18 852 25.16 -1.2 29.8 39 -13.5 7.7
01:30 1022 30.18 852 25.16 -1 30.3 39 -13.3 8
01:35 1022 30.18 851 25.13 -0.8 30.6 38 -13.4 7.9
01:40 1022 30.18 851 25.13 -0.9 30.3 39 -13.4 7.9
01:45 1022 30.18 851 25.13 -0.4 31.2 37 -13.5 7.8
01:50 1022 30.18 851 25.13 -0.7 30.7 37 -13.6 7.5
01:55 1022 30.18 851 25.13 -1 30.3 37 -13.9 7
02:00 1022 30.18 851 25.13 -0.8 30.6 37 -13.7 7.3
02:05 1022 30.18 851 25.13 -0.6 30.9 36 -14 6.8
02:10 1022 30.18 851 25.13 -0.6 31 37 -13.5 7.7
02:15 1022 30.18 851 25.13 -0.8 30.5 37 -13.8 7.2
02:20 1022 30.18 851 25.13 -1.1 30 41 -12.6 9.2
02:25 1022 30.18 851 25.13 -1.4 29.4 41 -13 8.7
02:30 1022 30.18 851 25.13 -0.9 30.3 38 -13.4 7.8
02:35 1022 30.18 851 25.13 -0.8 30.6 37 -13.7 7.3
02:40 1022 30.18 851 25.13 -0.5 31 37 -13.6 7.5
02:45 1022 30.18 851 25.13 -0.5 31.1 38 -13.1 8.4
02:50 1022 30.18 851 25.13 -0.7 30.8 37 -13.8 7.2
02:55 1022 30.18 851 25.13 -0.4 31.3 36 -13.8 7.1
03:00 1022 30.18 851 25.13 -0.6 30.9 37 -13.6 7.5
03:05 1022 30.18 851 25.13 -1 30.3 40 -13 8.5
03:10 1022 30.18 851 25.13 -1.3 29.7 39 -13.7 7.4
03:15 1022 30.18 851 25.13 -1.4 29.5 41 -13.2 8.3
03:20 1022 30.18 851 25.13 -1.3 29.6 42 -12.7 9.2
03:25 1022 30.18 851 25.13 -1.2 29.9 37 -14.3 6.3
03:30 1022 30.18 851 25.13 -0.3 31.5 34 -14.2 6.4
03:35 1022 30.18 851 25.13 -0.1 31.8 35 -13.7 7.3
03:40 1021 30.15 851 25.13 -0.3 31.5 36 -13.7 7.3
03:45 1021 30.15 851 25.13 -0.3 31.4 36 -13.7 7.3
03:50 1021 30.15 851 25.13 -0.5 31.2 37 -13.4 7.9
03:55 1021 30.15 851 25.13 -0.9 30.5 38 -13.4 7.8
04:00 1021 30.15 851 25.13 -1.1 30 39 -13.5 7.7
04:05 1021 30.15 851 25.13 -1.3 29.6 39 -13.7 7.4
04:10 1021 30.15 851 25.13 -1.3 29.7 38 -13.9 7.1
04:15 1021 30.15 850 25.1 -1.1 30 37 -14 6.8
04:20 1021 30.15 850 25.1 -0.9 30.4 38 -13.5 7.6
04:25 1021 30.15 851 25.13 -1.1 30.1 39 -13.3 8.1
04:30 1021 30.15 851 25.13 -1.5 29.3 41 -13.2 8.2
04:35 1021 30.15 851 25.13 -1.8 28.8 43 -12.7 9.1
04:40 1021 30.15 851 25.13 -2.2 28.1 45 -12.5 9.5
04:45 1021 30.15 851 25.13 -2.3 27.9 45 -12.8 9
04:50 1021 30.15 851 25.13 -2 28.4 43 -13 8.6
04:55 1021 30.15 851 25.13 -1.9 28.5 44 -12.7 9.2
05:00 1021 30.15 851 25.13 -2.2 28.1 43 -13.1 8.4
05:05 1022 30.18 851 25.13 -2.3 27.9 43 -13.2 8.2
05:10 1022 30.18 851 25.13 -2.2 28.1 44 -12.8 9
05:15 1022 30.18 851 25.13 -2.5 27.5 46 -12.7 9.1
05:20 1022 30.18 851 25.13 -2.8 27 46 -12.8 8.9
05:25 1022 30.18 851 25.13 -2.8 26.9 47 -12.7 9.2
05:30 1022 30.18 851 25.13 -2.8 27 46 -12.9 8.7
05:35 1022 30.18 851 25.13 -2.6 27.3 46 -12.7 9.1
05:40 1021 30.15 851 25.13 -2.7 27.2 48 -12.3 9.8
05:45 1021 30.15 851 25.13 -3.3 26.1 49 -12.4 9.6
05:50 1021 30.15 851 25.13 -3.4 25.8 49 -12.8 9
05:55 1021 30.15 851 25.13 -3.2 26.3 50 -12.3 9.9
06:00 1021 30.15 851 25.13 -3.9 25.1 53 -12.1 10.1
06:05 1021 30.15 851 25.13 -4.5 23.8 53 -12.8 9
06:10 1021 30.15 851 25.13 -3.9 24.9 49 -13.2 8.3
06:15 1021 30.15 850 25.1 -3.6 25.5 48 -13.1 8.5
06:20 1021 30.15 850 25.1 -3.7 25.4 47 -13.4 7.9
06:25 1021 30.15 850 25.1 -3.5 25.7 47 -13.2 8.3
06:30 1021 30.15 850 25.1 -3.5 25.8 47 -13.3 8
06:35 1021 30.15 851 25.13 -3.4 25.9 46 -13.4 8
06:40 1021 30.15 850 25.1 -3.2 26.3 46 -13.2 8.3
06:45 1021 30.15 850 25.1 -3.4 25.9 46 -13.4 7.9
06:50 1021 30.15 851 25.13 -3.2 26.2 46 -13.4 8
06:55 1021 30.15 851 25.13 -3.2 26.3 45 -13.5 7.7
07:00 1021 30.15 850 25.1 -2.9 26.8 45 -13.3 8
07:05 1021 30.15 850 25.1 -3 26.5 45 -13.5 7.8
07:10 1021 30.15 850 25.1 -2.9 26.8 44 -13.6 7.6
07:15 1021 30.15 850 25.1 -2.4 27.7 42 -13.6 7.4
07:20 1021 30.15 850 25.1 -2.1 28.2 41 -13.8 7.2
07:25 1021 30.15 850 25.1 -1.9 28.6 40 -13.7 7.3
07:30 1021 30.15 850 25.1 -1.7 28.9 39 -13.8 7.1
07:35 1021 30.15 850 25.1 -1.9 28.7 41 -13.4 7.9
07:40 1021 30.15 850 25.1 -2.2 28 42 -13.5 7.7
07:45 1021 30.15 850 25.1 -2.4 27.7 42 -13.6 7.5
07:50 1021 30.15 850 25.1 -2.5 27.5 43 -13.5 7.7
07:55 1021 30.15 850 25.1 -2.9 26.8 44 -13.5 7.8
08:00 1021 30.15 850 25.1 -3 26.6 45 -13.5 7.8
08:05 1021 30.15 850 25.1 -2.8 27 42 -13.9 6.9
08:10 1021 30.15 850 25.1 -2.4 27.7 41 -13.9 7
08:15 1021 30.15 850 25.1 -2.1 28.2 41 -13.7 7.3
08:20 1021 30.15 850 25.1 -2.4 27.7 42 -13.7 7.4
08:25 1021 30.15 850 25.1 -1.8 28.7 39 -14.1 6.7
08:30 1021 30.15 850 25.1 -1.1 30 36 -14.5 6
08:35 1021 30.15 850 25.1 -0.4 31.3 34 -14.5 5.9
08:40 1021 30.15 850 25.1 -0.4 31.3 35 -14.1 6.7
08:45 1021 30.15 850 25.1 -1 30.2 38 -13.7 7.4
08:50 1021 30.15 850 25.1 -1.3 29.7 38 -13.8 7.2
08:55 1021 30.15 850 25.1 -1.4 29.5 39 -13.7 7.3
09:00 1021 30.15 850 25.1 -1.3 29.6 38 -14.1 6.7
09:05 1021 30.15 850 25.1 -0.8 30.5 35 -14.4 6.1
09:10 1021 30.15 850 25.1 -0.5 31.2 39 -12.8 8.9
09:15 1021 30.15 850 25.1 -0.6 30.9 39 -13 8.7
09:20 1021 30.15 850 25.1 -0.3 31.5 35 -14.1 6.7
09:25 1021 30.15 850 25.1 0.1 32.2 35 -13.6 7.5
09:30 1021 30.15 850 25.1 0.3 32.6 35 -13.3 8.1
09:35 1021 30.15 850 25.1 0.3 32.5 36 -13.2 8.2
09:40 1021 30.15 850 25.1 0.6 33 34 -13.7 7.4
09:45 1021 30.15 850 25.1 1.3 34.3 33 -13.4 7.8
09:50 1021 30.15 850 25.1 1.8 35.2 33 -12.9 8.8
09:55 1021 30.15 850 25.1 1.4 34.6 35 -12.5 9.5
10:00 1021 30.15 850 25.1 1.2 34.2 34 -13.1 8.4
10:05 1021 30.15 850 25.1 1.6 34.9 33 -13.1 8.4
10:10 1021 30.15 850 25.1 1.9 35.4 32 -13.1 8.5
10:15 1021 30.15 850 25.1 2.5 36.5 31 -13 8.6
10:20 1021 30.15 850 25.1 2.8 37.1 29 -13.4 7.9
10:25 1021 30.15 850 25.1 3.2 37.7 29 -13.2 8.3
10:30 1021 30.15 850 25.1 3.8 38.9 28 -13.2 8.2
10:35 1021 30.15 850 25.1 3.8 38.9 27 -13.4 7.9
10:40 1021 30.15 850 25.1 3.8 38.8 27 -13.4 7.9
10:45 1020 30.12 850 25.1 4.5 40 27 -13.1 8.4
10:50 1020 30.12 850 25.1 4.6 40.4 27 -12.8 8.9
10:55 1020 30.12 850 25.1 5 40.9 25 -13.7 7.3
11:00 1020 30.12 850 25.1 5.4 41.7 24 -13.7 7.4
11:05 1020 30.12 849 25.07 5.7 42.3 25 -13.1 8.5
11:10 1020 30.12 849 25.07 6.5 43.7 23 -13 8.7
11:15 1020 30.12 849 25.07 6.5 43.7 25 -12.3 9.9
11:20 1020 30.12 849 25.07 6.4 43.6 25 -12 10.4
11:25 1020 30.12 849 25.07 6.4 43.4 25 -12.2 10
11:30 1020 30.12 849 25.07 6.3 43.3 25 -12.3 9.9
11:35 1020 30.12 849 25.07 6.2 43.1 26 -12 10.5
11:40 1020 30.12 849 25.07 5.3 41.5 28 -11.9 10.6
11:45 1020 30.12 849 25.07 5.4 41.7 28 -11.8 10.8
11:50 1020 30.12 849 25.07 5.8 42.4 26 -12.2 10
11:55 1020 30.12 849 25.07 6.5 43.7 25 -12.1 10.3
12:00 1020 30.12 849 25.07 6.9 44.4 23 -12.6 9.2
12:05 1020 30.12 849 25.07 6.7 44.1 25 -11.9 10.7
12:10 1019 30.09 849 25.07 6.7 44 25 -12.1 10.3
12:15 1019 30.09 849 25.07 7.4 45.4 24 -11.8 10.8
12:20 1019 30.09 848 25.04 7.3 45.2 24 -12.1 10.2
12:25 1019 30.09 848 25.04 7.6 45.6 21 -13.3 8.1
12:30 1019 30.09 848 25.04 7.9 46.2 22 -12.8 9
12:35 1019 30.09 848 25.04 7.8 46.1 23 -12.2 10
12:40 1019 30.09 848 25.04 7.9 46.1 23 -12.1 10.2
12:45 1019 30.09 848 25.04 7.9 46.2 23 -11.9 10.5
12:50 1019 30.09 848 25.04 8 46.4 24 -11.6 11.1
12:55 1019 30.09 848 25.04 7.8 46.1 24 -11.7 10.9
13:00 1019 30.09 848 25.04 7.2 45 25 -11.8 10.8
13:05 1019 30.09 848 25.04 7.4 45.3 25 -11.6 11.1
13:10 1019 30.09 848 25.04 8.3 47 23 -11.8 10.8
13:15 1019 30.09 848 25.04 8.4 47.2 22 -12.1 10.2
13:20 1019 30.09 848 25.04 8.6 47.4 21 -12.5 9.6
13:25 1019 30.09 848 25.04 8.9 47.9 21 -12.5 9.5
13:30 1019 30.09 848 25.04 9 48.3 20 -12.8 8.9
13:35 1018 30.06 848 25.04 8.3 47 22 -12 10.4
13:40 1018 30.06 848 25.04 7.9 46.2 22 -12.4 9.6
13:45 1018 30.06 848 25.04 7.7 45.9 22 -12.8 9
13:50 1018 30.06 847 25.01 7.6 45.7 22 -13 8.7
13:55 1018 30.06 847 25.01 8.3 47 23 -11.7 10.9
14:00 1018 30.06 847 25.01 7.9 46.3 25 -11 12.2
14:05 1018 30.06 847 25.01 8.1 46.6 24 -11.4 11.5
14:10 1018 30.06 847 25.01 8.1 46.5 24 -11.5 11.3
14:15 1018 30.06 847 25.01 7.7 45.9 23 -12 10.4
14:20 1018 30.06 847 25.01 7.6 45.6 24 -11.6 11.2
14:25 1018 30.06 847 25.01 7.6 45.7 24 -11.9 10.5
14:30 1018 30.06 847 25.01 7.5 45.5 25 -11.4 11.5
14:35 1018 30.06 847 25.01 8.1 46.5 23 -12.1 10.2
14:40 1018 30.06 847 25.01 9 48.2 22 -11.6 11.2
14:45 1018 30.06 847 25.01 9 48.1 23 -11 12.1
14:50 1018 30.06 847 25.01 9.1 48.4 23 -11.1 12
14:55 1018 30.06 847 25.01 9.7 49.4 21 -11.8 10.8
15:00 1018 30.06 847 25.01 8.7 47.6 21 -12.7 9.1
15:05 1018 30.06 847 25.01 8.4 47 21 -12.7 9.2
15:10 1018 30.06 847 25.01 9.1 48.3 20 -12.8 8.9
15:15 1018 30.06 847 25.01 9.7 49.4 18 -13.4 8
15:20 1018 30.06 847 25.01 9.9 49.8 21 -11.3 11.7
15:25 1018 30.06 847 25.01 9.2 48.5 23 -10.9 12.4
15:30 1018 30.06 847 25.01 8.1 46.5 24 -11.2 11.9
15:35 1018 30.06 847 25.01 8.4 47.2 23 -11.3 11.6
15:40 1018 30.06 847 25.01 8.8 47.8 23 -11.2 11.8
15:45 1018 30.06 847 25.01 8.7 47.7 24 -11 12.3
15:50 1018 30.06 847 25.01 8.5 47.3 23 -11.7 11
15:55 1018 30.06 847 25.01 9 48.1 23 -11.2 11.8
16:00 1018 30.06 847 25.01 9.1 48.3 23 -11.1 12
16:05 1018 30.06 847 25.01 8.6 47.4 24 -10.9 12.4
16:10 1018 30.06 847 25.01 7.9 46.3 26 -10.6 13
16:15 1018 30.06 847 25.01 8.1 46.5 25 -10.9 12.4
16:20 1018 30.06 847 25.01 8.7 47.6 25 -10.4 13.2
16:25 1018 30.06 847 25.01 8.8 47.8 23 -11.4 11.4
16:30 1018 30.06 847 25.01 8.7 47.7 24 -10.9 12.4
16:35 1018 30.06 847 25.01 8.5 47.3 26 -10 14
16:40 1018 30.06 847 25.01 8.3 46.9 25 -10.4 13.2
16:45 1017 30.03 847 25.01 8 46.5 24 -11.1 12
16:50 1017 30.03 847 25.01 7.7 45.9 26 -10.5 13.1
16:55 1017 30.03 847 25.01 6.9 44.5 24 -12.1 10.3
17:00 1017 30.03 847 25.01 6.5 43.7 25 -12.4 9.6
17:05 1017 30.03 847 25.01 6.5 43.6 29 -10.5 13.1
17:10 1017 30.03 847 25.01 6.1 43 30 -10.3 13.5
17:15 1017 30.03 847 25.01 5.5 41.9 32 -9.7 14.5
17:20 1017 30.03 847 25.01 5.1 41.1 33 -9.7 14.5
17:25 1017 30.03 847 25.01 4.8 40.7 35 -9.3 15.2
17:30 1017 30.03 846 24.98 4.4 40 34 -10.1 13.8
17:35 1017 30.03 846 24.98 4 39.3 37 -9.2 15.4
17:40 1017 30.03 846 24.98 3.4 38.2 39 -9.4 15.2
17:45 1017 30.03 846 24.98 2.6 36.7 42 -9.1 15.6
17:50 1017 30.03 846 24.98 2.1 35.8 43 -9.1 15.6
17:55 1017 30.03 846 24.98 1.9 35.5 44 -9.1 15.7
18:00 1017 30.03 846 24.98 1.7 35 45 -9 15.9
18:05 1017 30.03 846 24.98 1.6 34.8 45 -9.2 15.5
18:10 1017 30.03 846 24.98 1.3 34.4 46 -8.9 15.9
18:15 1017 30.03 846 24.98 0.9 33.7 49 -8.7 16.4
18:20 1017 30.03 846 24.98 0.8 33.4 46 -9.4 15.1
18:25 1017 30.03 846 24.98 1.1 34 46 -9.1 15.6
18:30 1017 30.03 846 24.98 1 33.8 47 -9 15.9
18:35 1017 30.03 846 24.98 0.8 33.4 49 -8.8 16.1
18:40 1017 30.03 846 24.98 0.6 33.1 49 -8.9 16
18:45 1017 30.03 846 24.98 0.8 33.4 48 -9 15.8
18:50 1017 30.03 846 24.98 0.8 33.4 49 -8.8 16.1
18:55 1017 30.03 846 24.98 0.6 33.1 50 -8.8 16.2
19:00 1017 30.03 846 24.98 0.4 32.7 51 -8.6 16.6
19:05 1017 30.03 846 24.98 -0.1 31.8 53 -8.7 16.3
19:10 1017 30.03 846 24.98 -0.5 31.1 54 -8.7 16.4
19:15 1017 30.03 846 24.98 -0.6 30.8 54 -8.8 16.1
19:20 1017 30.03 846 24.98 -0.5 31.1 51 -9.6 14.8
19:25 1017 30.03 846 24.98 0.1 32.2 48 -9.7 14.6
19:30 1017 30.03 846 24.98 0.2 32.3 47 -9.8 14.4
19:35 1017 30.03 846 24.98 0.5 32.8 43 -10.8 12.6
19:40 1017 30.03 846 24.98 0.9 33.6 41 -11 12.3
19:45 1017 30.03 846 24.98 0.9 33.7 40 -11.2 11.9
19:50 1017 30.03 846 24.98 1.1 33.9 40 -11.1 11.9
19:55 1017 30.03 846 24.98 1 33.9 38 -11.6 11.1
20:00 1017 30.03 846 24.98 1.3 34.3 38 -11.6 11.1
20:05 1017 30.03 846 24.98 1.3 34.4 38 -11.4 11.4
20:10 1017 30.03 846 24.98 1.1 33.9 39 -11.6 11.2
20:15 1017 30.03 846 24.98 1.3 34.3 37 -11.8 10.8
20:20 1017 30.03 846 24.98 1.1 33.9 40 -11 12.1
20:25 1017 30.03 846 24.98 0.8 33.4 39 -11.8 10.8
20:30 1017 30.03 846 24.98 1.2 34.1 36 -12.4 9.6
20:35 1017 30.03 846 24.98 1.8 35.2 36 -11.9 10.5
20:40 1016 30 846 24.98 1.6 34.9 38 -11.3 11.7
20:45 1016 30 846 24.98 1.2 34.2 38 -11.6 11
20:50 1016 30 846 24.98 0.8 33.4 40 -11.3 11.7
20:55 1016 30 846 24.98 0.4 32.7 41 -11.5 11.3
21:00 1016 30 846 24.98 0.4 32.6 39 -12 10.4
21:05 1016 30 846 24.98 0.7 33.2 41 -11.2 11.9
21:10 1016 30 845 24.95 0.1 32.1 43 -11.2 11.8
21:15 1016 30 845 24.95 -0.2 31.7 43 -11.2 11.8
21:20 1016 30 845 24.95 0.2 32.4 41 -11.5 11.2
21:25 1016 30 845 24.95 0.5 32.9 40 -11.5 11.3
21:30 1016 30 845 24.95 0.3 32.5 42 -11.2 11.8
21:35 1016 30 845 24.95 0.3 32.6 41 -11.6 11.2
21:40 1016 30 845 24.95 0.6 33.1 40 -11.5 11.2
21:45 1016 30 845 24.95 0.7 33.3 39 -11.7 11
21:50 1016 30 845 24.95 0.7 33.2 43 -10.7 12.8
21:55 1016 30 845 24.95 0.4 32.7 41 -11.5 11.4
22:00 1016 30 845 24.95 0.7 33.3 40 -11.3 11.7
22:05 1016 30 845 24.95 0.5 32.9 44 -10.5 13.1
22:10 1016 30 845 24.95 0.6 33 42 -11 12.2
22:15 1016 30 845 24.95 1 33.9 40 -11 12.2
22:20 1016 30 845 24.95 1.3 34.3 39 -11.2 11.8
22:25 1016 30 845 24.95 1.2 34.2 39 -11.2 11.9
22:30 1016 30 845 24.95 1.6 34.9 37 -11.6 11
22:35 1016 30 845 24.95 2.1 35.8 36 -11.4 11.5
22:40 1016 30 845 24.95 2.4 36.3 36 -11.1 12.1
22:45 1016 30 845 24.95 2.1 35.9 37 -10.9 12.3
22:50 1016 30 845 24.95 1.9 35.5 38 -10.8 12.5
22:55 1016 30 845 24.95 1.5 34.7 39 -11 12.3
23:00 1016 30 845 24.95 1.3 34.3 42 -10.4 13.3
23:05 1016 30 845 24.95 0.8 33.5 43 -10.4 13.3
23:10 1016 30 845 24.95 0.6 33.1 43 -10.7 12.8
23:15 1016 30 845 24.95 0.6 33 42 -10.9 12.5
23:20 1016 30 845 24.95 0.6 33.1 42 -11 12.2
23:25 1016 30 845 24.95 1.1 34 39 -11.2 11.8
23:30 1016 30 845 24.95 1.4 34.5 39 -11.1 12
23:35 1016 30 845 24.95 1.4 34.4 40 -11 12.3
23:40 1016 30 845 24.95 1.4 34.6 39 -11.2 11.8
23:45 1016 30 845 24.95 1.5 34.7 39 -10.9 12.5
23:50 1016 30 845 24.95 1.2 34.2 40 -11 12.2
23:55 1016 30 845 24.95 1 33.8 40 -11.1 12.1
24:00 1016 30 845 24.95 0.9 33.6 44 -10.1 13.8